Metolius, Oregon
Current Conditions -  °F | °C
As of 8:55 PM on Friday 21 Nov 2014 (Local Time) from KS39 Reporting Station
Overcast Overcast  
Wind Chill: 40°   Ceiling: 5500
Heat Index: 46°   Visibility: 8mi
Dew Point: 41°   Wind: 16mph
Humidity: 81%   Direction: 200°SSW
Pressure: 29.57"   Gusts: NA
Location:  44.6442°N, 121.064°W
Report Text: KS39 220455Z AUTO 20014KT 8SM FEW036 BKN055 OVC065 08/05 A2957 RMK AO2
Loading
Personal Weather Stations






























Interactive Weather Map New forecast layout! Learn more

10-Day Weather Forecast

Advertisements
Track Severe Weather on mobile